Time;durP1;ratioP1;P1;durP2;ratioP2;P2;SDS_P1;SDS_P2;PMS_P1;PMS_P2;Temp;Humidity;BMP_temperature;BMP_pressure;BME280_temperature;BME280_humidity;BME280_pressure;Samples;Min_cycle;Max_cycle;Signal;HPM_P1;HPM_P2
2022/09/17 00:00:50;;;;;;;9.18;6.85;;;;;;;12.40;100.00;99167.63;6335453;22;20011;-80
2022/09/17 00:03:16;;;;;;;12.20;7.03;;;;;;;12.40;100.00;99167.63;6334949;22;20026;-80
2022/09/17 00:05:42;;;;;;;9.15;6.97;;;;;;;12.44;100.00;99159.88;6335119;22;20011;-80
2022/09/17 00:08:10;;;;;;;8.25;6.95;;;;;;;12.48;100.00;99163.25;6306681;22;20010;-80
2022/09/17 00:10:38;;;;;;;9.32;6.60;;;;;;;12.53;100.00;99165.41;6336010;22;20332;-80
2022/09/17 00:13:04;;;;;;;8.52;7.13;;;;;;;12.45;100.00;99164.19;6307164;22;20010;-80
2022/09/17 00:15:30;;;;;;;8.45;6.47;;;;;;;12.49;100.00;99162.03;6335471;22;20006;-80
2022/09/17 00:17:56;;;;;;;9.40;7.03;;;;;;;12.46;100.00;99154.59;6335417;22;20014;-80
2022/09/17 00:20:26;;;;;;;8.45;7.53;;;;;;;12.42;100.00;99165.13;6307784;22;20011;-81
2022/09/17 00:22:52;;;;;;;8.98;6.55;;;;;;;12.45;100.00;99158.63;6335517;22;20010;-79
2022/09/17 00:25:18;;;;;;;8.88;7.38;;;;;;;12.37;100.00;99158.22;6334908;22;20034;-80
2022/09/17 00:27:44;;;;;;;8.85;6.22;;;;;;;12.48;100.00;99166.03;6335331;22;20429;-79
2022/09/17 00:30:10;;;;;;;7.60;6.63;;;;;;;12.47;100.00;99159.69;6307678;22;20060;-79
2022/09/17 00:32:36;;;;;;;9.50;7.05;;;;;;;12.47;100.00;99161.72;6335084;22;20032;-80
2022/09/17 00:35:01;;;;;;;8.70;6.60;;;;;;;12.54;100.00;99155.78;6336236;22;20429;-79
2022/09/17 00:37:27;;;;;;;8.85;7.28;;;;;;;12.53;100.00;99157.06;6337459;22;20307;-80
2022/09/17 00:39:52;;;;;;;7.45;6.28;;;;;;;12.49;100.00;99167.59;6337504;22;20086;-79
2022/09/17 00:42:18;;;;;;;8.30;6.22;;;;;;;12.49;100.00;99162.03;6337060;22;20042;-80
2022/09/17 00:44:55;;;;;;;9.80;6.93;;;;;;;12.37;100.00;99169.34;6337693;22;20314;-79
2022/09/17 00:47:31;;;;;;;9.65;6.80;;;;;;;12.33;100.00;99176.31;6309417;22;20045;-79
2022/09/17 00:50:00;;;;;;;8.80;7.10;;;;;;;12.25;100.00;99177.88;6284103;22;20337;-80
2022/09/17 00:52:32;;;;;;;8.38;7.15;;;;;;;12.17;100.00;99171.88;6309656;22;20011;-80
2022/09/17 00:55:07;;;;;;;8.90;6.90;;;;;;;12.22;100.00;99190.69;6310059;22;20336;-80
2022/09/17 00:57:32;;;;;;;7.93;6.90;;;;;;;12.24;100.00;99181.91;6258083;22;20392;-79
2022/09/17 00:59:58;;;;;;;10.60;6.95;;;;;;;12.26;100.00;99199.63;6284406;22;20007;-80
2022/09/17 01:02:24;;;;;;;8.45;6.70;;;;;;;12.19;100.00;99182.53;6288725;22;20303;-79
2022/09/17 01:04:50;;;;;;;9.73;6.63;;;;;;;12.28;100.00;99201.97;6308731;22;20082;-79
2022/09/17 01:07:34;;;;;;;9.90;7.05;;;;;;;12.33;100.00;99207.66;6337273;22;20323;-79
2022/09/17 01:10:17;;;;;;;9.95;6.63;;;;;;;12.32;100.00;99197.78;6284135;22;20010;-79
2022/09/17 01:13:12;;;;;;;8.63;6.00;;;;;;;12.42;100.00;99201.28;6309469;22;20010;-79
2022/09/17 01:15:40;;;;;;;8.60;6.47;;;;;;;12.48;100.00;99207.75;6320121;22;20022;-79
2022/09/17 01:18:23;;;;;;;10.20;6.47;;;;;;;12.39;100.00;99194.66;6336755;22;20014;-79
2022/09/17 01:20:58;;;;;;;8.88;7.45;;;;;;;12.44;100.00;99187.69;6309566;22;20074;-79
2022/09/17 01:23:49;;;;;;;9.43;7.00;;;;;;;12.43;100.00;99189.69;6334207;22;20421;-79
2022/09/17 01:26:36;;;;;;;7.57;6.22;;;;;;;12.48;100.00;99185.50;6309883;22;20078;-79
2022/09/17 01:29:20;;;;;;;12.60;7.22;;;;;;;12.52;100.00;99192.44;6336892;22;20014;-79
2022/09/17 01:32:08;;;;;;;8.70;6.40;;;;;;;12.54;100.00;99172.47;6258642;22;20013;-79
2022/09/17 01:34:44;;;;;;;7.50;6.57;;;;;;;12.57;100.00;99180.69;6309595;22;20034;-79
2022/09/17 01:37:18;;;;;;;10.02;6.93;;;;;;;12.50;100.00;99166.31;6309001;22;20019;-79
2022/09/17 01:39:59;;;;;;;9.27;6.32;;;;;;;12.50;100.00;99171.88;6309542;22;20015;-79
2022/09/17 01:43:02;;;;;;;9.35;6.85;;;;;;;12.49;100.00;99171.13;6283254;22;20354;-79
2022/09/17 01:45:43;;;;;;;7.75;6.78;;;;;;;12.52;100.00;99181.31;6309996;22;20424;-79
2022/09/17 01:48:20;;;;;;;9.80;6.88;;;;;;;12.49;100.00;99171.13;6308664;22;20015;-79
2022/09/17 01:50:52;;;;;;;10.68;7.38;;;;;;;12.53;100.00;99159.84;6336984;22;20078;-79
2022/09/17 01:53:23;;;;;;;9.48;6.55;;;;;;;12.55;100.00;99154.56;6283525;22;20007;-79
2022/09/17 01:55:50;;;;;;;8.93;6.72;;;;;;;12.53;100.00;99154.28;6309295;22;20013;-79
2022/09/17 01:58:21;;;;;;;8.95;6.70;;;;;;;12.53;100.00;99137.59;6283353;22;20003;-78
2022/09/17 02:00:50;;;;;;;11.50;7.15;;;;;;;12.57;100.00;99138.19;6258085;22;20323;-79
2022/09/17 02:03:29;;;;;;;10.43;7.28;;;;;;;12.49;100.00;99126.63;6254131;22;20391;-78
2022/09/17 02:06:12;;;;;;;8.18;6.38;;;;;;;12.53;100.00;99134.81;6240926;22;20090;-79
2022/09/17 02:08:46;;;;;;;7.83;6.47;;;;;;;12.56;100.00;99137.41;6278278;22;20055;-78
2022/09/17 02:11:15;;;;;;;10.93;7.18;;;;;;;12.51;100.00;99135.25;6278243;22;20094;-78
2022/09/17 02:13:46;;;;;;;9.90;6.57;;;;;;;12.53;100.00;99137.59;6305504;22;20027;-78
2022/09/17 02:16:27;;;;;;;9.30;6.38;;;;;;;12.56;100.00;99131.06;6252418;22;20546;-79
2022/09/17 02:19:11;;;;;;;8.73;6.72;;;;;;;12.55;100.00;99104.50;6277630;22;20037;-78
2022/09/17 02:21:40;;;;;;;9.10;6.10;;;;;;;12.55;100.00;99102.47;6278303;22;20479;-79
2022/09/17 02:24:31;;;;;;;7.88;6.50;;;;;;;12.55;100.00;99093.34;6305456;22;20007;-79
2022/09/17 02:27:01;;;;;;;9.30;6.60;;;;;;;12.51;100.00;99101.09;6220814;22;20335;-78
2022/09/17 02:29:40;;;;;;;9.18;7.05;;;;;;;12.47;100.00;99089.38;6252339;22;20332;-79
2022/09/17 02:32:06;;;;;;;8.95;6.70;;;;;;;12.46;100.00;99094.19;6277766;22;20015;-78
2022/09/17 02:34:32;;;;;;;7.03;6.32;;;;;;;12.44;100.00;99090.34;6252757;22;20006;-78
2022/09/17 02:36:58;;;;;;;7.35;6.55;;;;;;;12.46;100.00;99071.16;6277465;22;20046;-78
2022/09/17 02:39:24;;;;;;;9.30;6.53;;;;;;;12.42;100.00;99073.34;6241282;22;20007;-79
2022/09/17 02:45:34;;;;;;;8.07;6.53;;;;;;;12.45;100.00;99075.19;6281843;22;20007;-78
2022/09/17 02:48:32;;;;;;;8.38;6.68;;;;;;;12.52;100.00;99074.84;6304629;22;20017;-79
2022/09/17 02:51:20;;;;;;;8.00;6.93;;;;;;;12.39;100.00;99071.50;6289535;22;20022;-78
2022/09/17 02:53:58;;;;;;;9.80;7.88;;;;;;;12.39;100.00;99079.84;6276854;22;20038;-78
2022/09/17 02:56:44;;;;;;;10.27;7.85;;;;;;;12.25;100.00;99066.66;6277619;22;20022;-78
2022/09/17 02:59:45;;;;;;;9.27;7.53;;;;;;;12.36;100.00;99083.59;6277457;22;20022;-78
2022/09/17 03:02:39;;;;;;;9.85;7.38;;;;;;;12.32;100.00;99088.56;6259460;22;20897;-78
2022/09/17 03:05:06;;;;;;;8.90;7.65;;;;;;;12.30;100.00;99085.47;6303676;22;20011;-78
2022/09/17 03:07:32;;;;;;;14.57;8.73;;;;;;;12.13;100.00;99094.19;6277366;22;20041;-78
2022/09/17 03:09:58;;;;;;;9.27;7.80;;;;;;;12.14;100.00;99076.28;6277702;22;20007;-79
2022/09/17 03:12:24;;;;;;;8.07;7.10;;;;;;;12.22;100.00;99079.47;6277802;22;20443;-79
2022/09/17 03:14:50;;;;;;;9.98;7.45;;;;;;;12.28;100.00;99085.19;6277616;22;20018;-79
2022/09/17 03:17:15;;;;;;;8.93;7.43;;;;;;;12.23;100.00;99086.59;6304451;22;20011;-79
2022/09/17 03:19:41;;;;;;;8.57;7.10;;;;;;;12.25;100.00;99094.47;6304901;22;20482;-79
2022/09/17 03:22:06;;;;;;;11.63;7.75;;;;;;;12.25;100.00;99091.69;6277247;22;20003;-79
2022/09/17 03:24:32;;;;;;;8.68;7.07;;;;;;;12.04;100.00;99063.69;6282320;22;20040;-90
2022/09/17 03:26:57;;;;;;;13.90;6.65;;;;;;;12.10;100.00;99067.34;6337380;22;20046;-91
2022/09/17 03:29:23;;;;;;;9.27;7.47;;;;;;;12.18;100.00;99086.44;6335767;22;20381;-92
2022/09/17 03:31:48;;;;;;;9.90;7.50;;;;;;;12.20;100.00;99081.22;6309358;22;20011;-91
2022/09/17 03:34:14;;;;;;;8.82;7.28;;;;;;;12.19;100.00;99074.09;6281731;22;20286;-94
2022/09/17 03:36:39;;;;;;;10.50;7.38;;;;;;;12.18;100.00;99072.56;6334684;22;20030;-91
2022/09/17 03:39:05;;;;;;;7.78;6.28;;;;;;;12.21;100.00;99071.63;6336603;22;20017;-90
2022/09/17 03:41:31;;;;;;;8.10;6.72;;;;;;;12.19;100.00;99066.53;6336902;22;20495;-78
2022/09/17 03:43:56;;;;;;;8.90;7.53;;;;;;;12.17;100.00;99044.00;6336359;22;20022;-92
2022/09/17 03:46:22;;;;;;;8.98;7.00;;;;;;;12.12;100.00;99053.75;6309496;22;20084;-91
2022/09/17 03:48:47;;;;;;;9.32;7.05;;;;;;;12.14;100.00;99056.03;6281719;22;20011;-92
2022/09/17 03:51:13;;;;;;;7.53;6.72;;;;;;;12.11;100.00;99052.22;6334638;22;20428;-92
2022/09/17 03:53:38;;;;;;;7.60;6.80;;;;;;;12.10;100.00;99053.44;6306555;22;20003;-90
2022/09/17 03:56:05;;;;;;;8.95;6.60;;;;;;;12.15;100.00;99054.81;6336489;22;20483;-90
2022/09/17 03:58:31;;;;;;;7.07;6.38;;;;;;;12.17;100.00;99059.91;6336671;22;20007;-90
2022/09/17 04:00:56;;;;;;;7.30;6.53;;;;;;;12.22;100.00;99056.47;6336942;22;20040;-90
2022/09/17 04:03:23;;;;;;;8.45;6.35;;;;;;;12.22;100.00;99048.13;6335350;22;20007;-78
2022/09/17 04:05:49;;;;;;;9.23;6.78;;;;;;;12.27;100.00;99045.47;6280398;22;20010;-79
2022/09/17 04:08:15;;;;;;;7.30;6.47;;;;;;;12.25;100.00;99047.97;6307456;22;20011;-78
2022/09/17 04:10:40;;;;;;;8.82;6.70;;;;;;;12.33;100.00;99057.50;6309771;22;20326;-78
2022/09/17 04:13:08;;;;;;;6.97;6.22;;;;;;;12.31;100.00;99051.63;6337693;22;20065;-78
2022/09/17 04:15:33;;;;;;;7.68;6.15;;;;;;;12.37;100.00;99054.53;6310085;22;20015;-77
2022/09/17 04:17:59;;;;;;;6.80;5.93;;;;;;;12.38;100.00;99040.16;6337488;22;20017;-78
2022/09/17 04:20:25;;;;;;;8.57;6.70;;;;;;;12.38;100.00;99036.59;6337817;22;20007;-90
2022/09/17 04:22:51;;;;;;;10.18;6.72;;;;;;;12.38;100.00;99031.03;6336237;22;19999;-78
2022/09/17 04:25:19;;;;;;;8.38;6.55;;;;;;;12.37;100.00;99026.75;6309221;22;20010;-78
2022/09/17 04:27:46;;;;;;;7.70;6.13;;;;;;;12.37;100.00;99029.53;6310557;22;20011;-78
2022/09/17 04:30:12;;;;;;;7.65;6.57;;;;;;;12.31;100.00;99036.97;6310786;22;20018;-78
2022/09/17 04:32:38;;;;;;;11.38;6.95;;;;;;;12.32;100.00;99050.41;6337022;22;20015;-78
2022/09/17 04:35:04;;;;;;;8.50;6.20;;;;;;;12.30;100.00;99052.09;6336085;22;20056;-78
2022/09/17 04:37:29;;;;;;;8.85;6.88;;;;;;;12.33;100.00;99059.50;6335856;22;20436;-78
2022/09/17 04:39:55;;;;;;;8.43;6.28;;;;;;;12.31;100.00;99053.63;6310475;22;20007;-78
2022/09/17 04:42:20;;;;;;;8.85;6.78;;;;;;;12.31;100.00;99057.19;6339114;22;20007;-91
2022/09/17 04:44:46;;;;;;;8.70;7.00;;;;;;;12.18;100.00;99073.31;6338663;22;20015;-91
2022/09/17 04:47:11;;;;;;;10.02;7.85;;;;;;;12.01;100.00;99081.28;6311030;22;20011;-91
2022/09/17 04:49:37;;;;;;;10.20;7.55;;;;;;;11.95;100.00;99071.28;6337901;22;20421;-91
2022/09/17 04:52:02;;;;;;;8.77;7.63;;;;;;;12.01;100.00;99077.75;6337969;22;20011;-93
2022/09/17 04:54:28;;;;;;;10.23;8.07;;;;;;;12.02;100.00;99077.25;6338839;22;20444;-91
2022/09/17 04:56:54;;;;;;;12.93;7.95;;;;;;;11.99;100.00;99069.88;6310666;22;20011;-92
2022/09/17 04:59:19;;;;;;;12.40;8.20;;;;;;;12.03;100.00;99069.69;6336578;22;20006;-78
2022/09/17 05:01:45;;;;;;;11.43;8.02;;;;;;;12.02;100.00;99057.81;6334940;22;20015;-78
2022/09/17 05:04:10;;;;;;;8.02;7.18;;;;;;;12.10;100.00;99080.47;6283410;22;20532;-78
2022/09/17 05:06:36;;;;;;;8.93;7.10;;;;;;;12.10;100.00;99078.47;6336535;22;20598;-78
2022/09/17 05:09:02;;;;;;;11.00;7.47;;;;;;;12.08;100.00;99075.41;6335235;22;20472;-77
2022/09/17 05:11:28;;;;;;;9.80;7.22;;;;;;;12.11;100.00;99076.44;6335670;22;20098;-77
2022/09/17 05:13:54;;;;;;;8.93;7.93;;;;;;;12.15;100.00;99079.84;6335881;22;20095;-77
2022/09/17 05:16:19;;;;;;;9.68;7.38;;;;;;;12.15;100.00;99085.38;6334882;22;20018;-77
2022/09/17 05:18:45;;;;;;;8.55;7.15;;;;;;;12.14;100.00;99083.84;6334628;22;20006;-90
2022/09/17 05:21:10;;;;;;;10.90;7.72;;;;;;;12.15;100.00;99094.50;6335706;22;20394;-92
2022/09/17 05:23:36;;;;;;;10.50;7.45;;;;;;;12.14;100.00;99090.19;6337732;22;20030;-91
2022/09/17 05:26:02;;;;;;;10.15;7.20;;;;;;;12.20;100.00;99086.75;6337971;22;20437;-91
2022/09/17 05:28:27;;;;;;;9.80;7.43;;;;;;;12.20;100.00;99086.75;6337007;22;20352;-90
2022/09/17 05:30:53;;;;;;;9.25;7.22;;;;;;;12.21;100.00;99093.88;6283921;22;20317;-91
2022/09/17 05:33:19;;;;;;;8.80;7.25;;;;;;;12.26;100.00;99107.09;6337713;22;20116;-93
2022/09/17 05:35:45;;;;;;;8.52;7.22;;;;;;;12.27;100.00;99122.56;6311020;22;20013;-90
2022/09/17 05:38:10;;;;;;;8.50;7.68;;;;;;;12.31;100.00;99134.28;6337621;22;20010;-77
2022/09/17 05:40:37;;;;;;;8.98;7.35;;;;;;;12.33;100.00;99123.47;6337490;22;20031;-78
2022/09/17 05:43:04;;;;;;;8.50;7.53;;;;;;;12.24;100.00;99115.94;6336916;22;20090;-77
2022/09/17 05:45:32;;;;;;;11.63;8.23;;;;;;;12.24;100.00;99131.84;6309424;22;20014;-78
2022/09/17 05:47:58;;;;;;;11.93;7.20;;;;;;;12.21;100.00;99121.69;6337025;22;20015;-77
2022/09/17 05:50:25;;;;;;;10.63;7.80;;;;;;;12.19;100.00;99135.25;6309633;22;20075;-77
2022/09/17 05:52:50;;;;;;;10.20;8.68;;;;;;;12.17;100.00;99129.41;6309223;22;20497;-77
2022/09/17 05:55:17;;;;;;;8.75;7.15;;;;;;;12.19;100.00;99141.59;6283787;22;20015;-77
2022/09/17 05:57:42;;;;;;;10.68;7.30;;;;;;;12.21;100.00;99132.78;6308636;22;20072;-94
2022/09/17 06:00:10;;;;;;;10.00;7.65;;;;;;;12.16;100.00;99125.84;6337459;22;20188;-94
2022/09/17 06:02:38;;;;;;;10.73;7.38;;;;;;;12.21;100.00;99127.22;6338281;22;20448;-94
2022/09/17 06:05:04;;;;;;;9.02;7.63;;;;;;;12.19;100.00;99105.44;6338470;22;19999;-93
2022/09/17 06:07:29;;;;;;;11.07;8.90;;;;;;;12.17;100.00;99104.41;6314263;22;20010;-93
2022/09/17 06:09:55;;;;;;;12.13;9.65;;;;;;;12.24;100.00;99109.59;6286708;22;20014;-90
2022/09/17 06:12:21;;;;;;;13.50;8.85;;;;;;;12.25;100.00;99108.38;6341289;22;20042;-91
2022/09/17 06:14:47;;;;;;;9.18;7.72;;;;;;;12.31;100.00;99110.03;6337237;22;20344;-90
2022/09/17 06:17:12;;;;;;;10.13;7.55;;;;;;;12.34;100.00;99102.75;6309177;22;20082;-77
2022/09/17 06:19:38;;;;;;;9.10;7.65;;;;;;;12.32;100.00;99105.25;6335486;22;20090;-76
2022/09/17 06:22:04;;;;;;;9.40;7.32;;;;;;;12.24;100.00;99107.59;6335614;22;20739;-77
2022/09/17 06:24:31;;;;;;;11.68;6.93;;;;;;;12.28;100.00;99107.41;6335670;22;20473;-77
2022/09/17 06:26:56;;;;;;;9.68;7.93;;;;;;;12.29;100.00;99108.97;6306299;22;20087;-77
2022/09/17 06:29:22;;;;;;;8.00;7.15;;;;;;;12.32;100.00;99124.72;6309257;22;20019;-77
2022/09/17 06:31:48;;;;;;;10.55;7.88;;;;;;;12.27;100.00;99142.03;6308004;22;20010;-78
2022/09/17 06:34:13;;;;;;;9.65;8.02;;;;;;;12.26;100.00;99146.81;6337275;22;19998;-92
2022/09/17 06:36:39;;;;;;;11.50;7.18;;;;;;;12.24;100.00;99138.19;6336427;22;20437;-78
2022/09/17 06:39:05;;;;;;;11.48;7.65;;;;;;;12.21;100.00;99132.78;6307471;22;20042;-78
2022/09/17 06:41:30;;;;;;;8.70;7.80;;;;;;;12.15;100.00;99127.88;6336479;22;20003;-78
2022/09/17 06:43:56;;;;;;;10.50;7.95;;;;;;;12.12;100.00;99114.91;6336012;22;20499;-79
2022/09/17 06:46:21;;;;;;;10.13;7.88;;;;;;;12.12;100.00;99109.34;6334814;22;20015;-79
2022/09/17 06:48:47;;;;;;;9.73;7.78;;;;;;;12.12;100.00;99123.25;6306282;22;20015;-79
2022/09/17 06:51:13;;;;;;;11.10;7.93;;;;;;;12.15;100.00;99130.66;6334042;22;20011;-78
2022/09/17 06:53:39;;;;;;;9.77;7.53;;;;;;;12.13;100.00;99138.66;6308225;22;20018;-90
2022/09/17 06:56:07;;;;;;;8.50;7.35;;;;;;;12.17;100.00;99141.31;6310243;22;20007;-90
2022/09/17 06:58:33;;;;;;;9.25;7.45;;;;;;;12.16;100.00;99159.22;6313008;22;20068;-90
2022/09/17 07:01:00;;;;;;;8.98;6.88;;;;;;;12.20;100.00;99162.59;6340424;22;20021;-90
2022/09/17 07:03:26;;;;;;;10.35;7.03;;;;;;;12.22;100.00;99162.13;6338892;22;20396;-91
2022/09/17 07:05:52;;;;;;;9.35;6.70;;;;;;;12.20;100.00;99170.16;6338708;22;20015;-90
2022/09/17 07:08:18;;;;;;;10.38;6.72;;;;;;;12.25;100.00;99169.53;6338255;22;20002;-91
2022/09/17 07:10:43;;;;;;;8.30;6.63;;;;;;;12.26;100.00;99171.06;6310742;22;20011;-90
2022/09/17 07:13:09;;;;;;;8.10;7.03;;;;;;;12.27;100.00;99169.81;6337912;22;20352;-78
2022/09/17 07:15:34;;;;;;;9.85;6.78;;;;;;;12.31;100.00;99184.34;6336753;22;19998;-77
2022/09/17 07:18:09;;;;;;;7.50;6.05;;;;;;;12.29;100.00;99197.94;6336101;22;20401;-79
2022/09/17 07:20:35;;;;;;;9.18;6.15;;;;;;;12.28;100.00;99190.84;6309137;22;20014;-77
2022/09/17 07:23:01;;;;;;;7.85;6.05;;;;;;;12.30;100.00;99202.25;6336456;22;20008;-77
2022/09/17 07:25:26;;;;;;;9.63;7.07;;;;;;;12.29;100.00;99203.50;6335919;22;20503;-77
2022/09/17 07:27:52;;;;;;;8.52;6.65;;;;;;;12.34;100.00;99194.50;6309341;22;20075;-77
2022/09/17 07:30:19;;;;;;;8.77;6.70;;;;;;;12.36;100.00;99194.81;6345977;22;20007;-77
2022/09/17 07:32:44;;;;;;;8.27;6.40;;;;;;;12.34;100.00;99191.72;6363107;22;20063;-92
2022/09/17 07:35:10;;;;;;;8.50;5.90;;;;;;;12.37;100.00;99188.03;6365725;22;20003;-91
2022/09/17 07:37:36;;;;;;;6.80;5.20;;;;;;;12.35;100.00;99180.16;6366365;22;19999;-91
2022/09/17 07:40:04;;;;;;;8.02;6.00;;;;;;;12.40;100.00;99178.75;6365586;22;19990;-91
2022/09/17 07:42:30;;;;;;;6.18;5.40;;;;;;;12.42;100.00;99168.69;6337239;22;20093;-90
2022/09/17 07:44:56;;;;;;;10.10;5.85;;;;;;;12.47;100.00;99156.16;6358668;22;19995;-93
2022/09/17 07:47:21;;;;;;;8.52;5.25;;;;;;;12.54;100.00;99147.44;6357080;22;20019;-91
2022/09/17 07:49:47;;;;;;;6.93;5.15;;;;;;;12.49;100.00;99118.28;6342176;22;20024;-89
2022/09/17 07:52:13;;;;;;;6.00;5.00;;;;;;;12.50;100.00;99119.03;6343055;22;20014;-88
2022/09/17 07:54:39;;;;;;;6.05;4.90;;;;;;;12.54;100.00;99133.53;6291025;22;20001;-88
2022/09/17 07:57:04;;;;;;;6.40;5.15;;;;;;;12.65;100.00;99152.50;6315278;22;20062;-90
2022/09/17 07:59:30;;;;;;;6.95;4.68;;;;;;;12.57;100.00;99172.34;6337425;22;20010;-88
2022/09/17 08:01:58;;;;;;;5.90;4.93;;;;;;;12.57;100.00;99172.34;6338028;22;20006;-89
2022/09/17 08:04:23;;;;;;;7.50;5.60;;;;;;;12.49;100.00;99162.03;6324554;22;20010;-88
2022/09/17 08:06:49;;;;;;;6.43;5.63;;;;;;;12.49;100.00;99164.81;6320633;22;20089;-89
2022/09/17 08:09:16;;;;;;;6.90;5.50;;;;;;;12.46;100.00;99163.72;6312472;22;20338;-88
2022/09/17 08:11:43;;;;;;;6.95;5.28;;;;;;;12.54;100.00;99161.34;6311611;22;20394;-88
2022/09/17 08:14:09;;;;;;;7.13;5.70;;;;;;;12.48;100.00;99174.38;6311519;22;20136;-90
2022/09/17 08:16:35;;;;;;;7.30;5.70;;;;;;;12.52;100.00;99186.09;6346539;22;20086;-89
2022/09/17 08:19:01;;;;;;;8.70;5.35;;;;;;;12.53;100.00;99187.66;6334019;22;20061;-89
2022/09/17 08:21:26;;;;;;;7.13;6.15;;;;;;;12.49;100.00;99204.53;6339684;22;20409;-88
2022/09/17 08:23:52;;;;;;;6.95;6.07;;;;;;;12.48;100.00;99202.19;6340725;22;20092;-88
2022/09/17 08:26:20;;;;;;;7.38;5.72;;;;;;;12.54;100.00;99217.00;6312865;22;20037;-87
2022/09/17 08:28:53;;;;;;;8.38;6.10;;;;;;;12.54;100.00;99217.00;6342984;22;20011;-88
2022/09/17 08:31:19;;;;;;;7.10;6.05;;;;;;;12.49;100.00;99220.44;6336851;22;20034;-88
2022/09/17 08:33:45;;;;;;;9.15;6.75;;;;;;;12.56;100.00;99208.97;6335527;22;20025;-88
2022/09/17 08:36:12;;;;;;;8.52;6.40;;;;;;;12.58;100.00;99212.81;6308018;22;20041;-89
2022/09/17 08:38:39;;;;;;;8.85;6.10;;;;;;;12.63;100.00;99225.31;6335628;22;20249;-89
2022/09/17 08:41:17;;;;;;;10.05;6.72;;;;;;;12.66;100.00;99213.22;6310237;22;20011;-89
2022/09/17 08:44:07;;;;;;;8.07;6.50;;;;;;;12.63;100.00;99203.03;6315512;22;20018;-89
2022/09/17 08:47:05;;;;;;;8.38;6.55;;;;;;;12.62;100.00;99190.38;6320433;22;20357;-88
2022/09/17 08:49:34;;;;;;;7.63;6.43;;;;;;;12.67;100.00;99189.72;6282513;22;20329;-88
2022/09/17 08:52:25;;;;;;;9.95;6.45;;;;;;;12.72;100.00;99194.66;6333762;22;20014;-87
2022/09/17 08:55:20;;;;;;;7.88;6.40;;;;;;;12.66;100.00;99190.22;6280916;22;20019;-89
2022/09/17 08:58:10;;;;;;;7.75;6.60;;;;;;;12.77;100.00;99160.63;6339997;22;20046;-89
2022/09/17 09:00:43;;;;;;;10.68;6.70;;;;;;;12.76;100.00;99161.88;6344376;22;20089;-88
2022/09/17 09:03:19;;;;;;;7.35;6.25;;;;;;;12.84;100.00;99149.13;6334623;22;20339;-87
2022/09/17 09:05:51;;;;;;;7.43;6.10;;;;;;;12.84;100.00;99129.66;6336532;22;20014;-89
2022/09/17 09:08:30;;;;;;;7.25;6.03;;;;;;;12.94;100.00;99138.72;6308339;22;20261;-89
2022/09/17 09:11:02;;;;;;;7.60;5.60;;;;;;;12.93;100.00;99132.38;6283663;22;20011;-89
2022/09/17 09:13:32;;;;;;;6.72;5.55;;;;;;;12.94;100.00;99127.59;6306909;22;20458;-88
2022/09/17 09:16:17;;;;;;;6.85;5.95;;;;;;;12.98;100.00;99117.78;6309330;22;20018;-88
2022/09/17 09:18:43;;;;;;;6.85;5.75;;;;;;;12.97;100.00;99124.63;6278790;22;20033;-89
2022/09/17 09:21:27;;;;;;;8.07;6.38;;;;;;;12.95;100.00;99129.88;6304282;22;20002;-89
2022/09/17 09:23:55;;;;;;;7.35;5.88;;;;;;;13.01;100.00;99122.44;6305306;22;20015;-88
2022/09/17 09:26:44;;;;;;;6.93;5.45;;;;;;;12.87;100.00;99117.56;6306667;22;20328;-88
2022/09/17 09:29:31;;;;;;;7.43;6.32;;;;;;;12.84;100.00;99118.53;6331919;22;20015;-87
2022/09/17 09:32:28;;;;;;;7.65;5.95;;;;;;;12.89;100.00;99120.66;6334717;22;20521;-88
2022/09/17 09:34:54;;;;;;;8.43;6.68;;;;;;;12.81;100.00;99118.72;6333995;22;20042;-89
2022/09/17 09:37:25;;;;;;;8.00;6.57;;;;;;;12.87;100.00;99114.78;6285854;22;19993;-88
2022/09/17 09:39:52;;;;;;;6.85;6.15;;;;;;;12.88;100.00;99124.69;6334890;22;20082;-90
2022/09/17 09:42:31;;;;;;;9.30;5.80;;;;;;;12.88;100.00;99135.81;6307921;22;20030;-90
2022/09/17 09:45:19;;;;;;;6.72;5.88;;;;;;;12.87;100.00;99145.41;6280967;22;20321;-90
2022/09/17 09:48:20;;;;;;;7.05;5.15;;;;;;;12.89;100.00;99142.16;6254793;22;20104;-89
2022/09/17 09:51:11;;;;;;;6.95;5.38;;;;;;;12.85;100.00;99125.63;6297590;22;20029;-85
2022/09/17 09:53:45;;;;;;;6.20;5.22;;;;;;;12.72;100.00;99124.31;6331957;22;20450;-83
2022/09/17 09:56:26;;;;;;;7.40;5.07;;;;;;;12.63;100.00;99131.50;6331206;22;20025;-84
2022/09/17 09:58:51;;;;;;;9.95;5.97;;;;;;;12.54;100.00;99161.34;6306000;22;20015;-83
2022/09/17 10:01:19;;;;;;;6.95;6.18;;;;;;;12.61;100.00;99183.28;6332302;22;20018;-83
2022/09/17 10:03:45;;;;;;;8.23;5.53;;;;;;;12.56;100.00;99186.72;6304639;22;19999;-83
2022/09/17 10:06:12;;;;;;;9.00;6.13;;;;;;;12.58;100.00;99189.78;6305858;22;20022;-84
2022/09/17 10:08:40;;;;;;;8.57;6.55;;;;;;;12.64;100.00;99176.78;6305349;22;20007;-84
2022/09/17 10:11:20;;;;;;;8.73;6.45;;;;;;;12.67;100.00;99189.72;6305331;22;20064;-84
2022/09/17 10:13:46;;;;;;;7.50;6.70;;;;;;;12.65;100.00;99177.53;6333255;22;20014;-84
2022/09/17 10:16:23;;;;;;;7.18;6.47;;;;;;;12.74;100.00;99203.28;6333431;22;20086;-84
2022/09/17 10:18:50;;;;;;;8.20;6.63;;;;;;;12.78;100.00;99181.63;6331168;22;20019;-84
2022/09/17 10:21:34;;;;;;;9.07;6.80;;;;;;;12.81;100.00;99175.13;6332179;22;20731;-84
2022/09/17 10:24:00;;;;;;;;;;;;;;;12.83;100.00;99178.19;6333429;22;20010;-84
2022/09/17 10:26:35;;;;;;;7.70;6.90;;;;;;;12.88;100.00;99163.66;6303982;22;19914;-84
2022/09/17 10:29:10;;;;;;;9.95;7.32;;;;;;;12.84;100.00;99174.19;6332070;22;20027;-84
2022/09/17 10:32:05;;;;;;;7.82;6.75;;;;;;;12.85;100.00;99163.81;6331639;22;20015;-84
2022/09/17 10:34:31;;;;;;;7.82;6.90;;;;;;;12.91;100.00;99162.69;6298466;22;20308;-84
2022/09/17 10:36:57;;;;;;;8.05;6.90;;;;;;;12.93;100.00;99149.09;6304786;22;20037;-84
2022/09/17 10:39:30;;;;;;;8.60;6.90;;;;;;;12.83;100.00;99132.91;6303467;22;20018;-83
2022/09/17 10:42:04;;;;;;;8.48;7.18;;;;;;;12.82;100.00;99126.56;6331068;22;20528;-83
2022/09/17 10:44:32;;;;;;;8.77;7.50;;;;;;;12.85;100.00;99122.09;6331504;22;20105;-83
2022/09/17 10:47:09;;;;;;;9.25;7.55;;;;;;;12.90;100.00;99104.72;6304495;22;20034;-83
2022/09/17 10:49:36;;;;;;;7.10;6.40;;;;;;;12.81;100.00;99086.09;6331381;22;20473;-83
2022/09/17 10:52:05;;;;;;;8.98;6.22;;;;;;;12.81;100.00;99096.44;6333655;22;20503;-83
2022/09/17 10:54:43;;;;;;;8.23;6.40;;;;;;;12.78;100.00;99092.56;6304657;22;20018;-83
2022/09/17 10:57:14;;;;;;;7.55;6.80;;;;;;;12.98;100.00;99101.09;6303650;22;20018;-83
2022/09/17 10:59:55;;;;;;;8.32;5.55;;;;;;;13.05;100.00;99092.41;6302432;22;20435;-83
2022/09/17 11:03:03;;;;;;;9.77;6.20;;;;;;;13.15;100.00;99100.69;6331026;22;20111;-83
2022/09/17 11:05:51;;;;;;;8.70;5.90;;;;;;;13.16;100.00;99093.88;6300750;22;20030;-83
2022/09/17 11:08:21;;;;;;;7.78;6.22;;;;;;;13.13;100.00;99109.53;6302795;22;20049;-82
2022/09/17 11:10:56;;;;;;;6.72;5.50;;;;;;;13.20;100.00;99108.38;6332419;22;20435;-83
2022/09/17 11:13:31;;;;;;;7.35;5.70;;;;;;;13.15;100.00;99114.59;6331314;22;20079;-83
2022/09/17 11:16:21;;;;;;;7.95;5.72;;;;;;;13.06;100.00;99102.25;6302868;22;20019;-84
2022/09/17 11:19:03;;;;;;;7.43;5.60;;;;;;;13.03;100.00;99069.81;6302526;22;20011;-85
2022/09/17 11:21:41;;;;;;;6.63;5.65;;;;;;;13.10;100.00;99040.88;6328961;22;20039;-85
2022/09/17 11:24:13;;;;;;;7.38;6.10;;;;;;;13.11;100.00;99053.53;6331389;22;20007;-84
2022/09/17 11:27:05;;;;;;;7.18;6.10;;;;;;;13.20;100.00;99063.81;6332313;22;20136;-83
2022/09/17 11:29:50;;;;;;;7.55;5.85;;;;;;;13.30;100.00;99059.72;6330729;22;20029;-84
2022/09/17 11:32:24;;;;;;;8.68;6.47;;;;;;;13.37;100.00;99048.19;6329171;22;20101;-88
2022/09/17 11:35:07;;;;;;;7.00;6.20;;;;;;;13.36;100.00;99049.44;6304823;22;20042;-89
2022/09/17 11:37:42;;;;;;;7.63;6.28;;;;;;;13.45;100.00;99060.50;6332054;22;20072;-90
2022/09/17 11:40:19;;;;;;;9.35;6.57;;;;;;;13.54;100.00;99044.44;6332401;22;20076;-88
2022/09/17 11:42:53;;;;;;;9.05;6.07;;;;;;;13.57;100.00;99022.44;6304816;22;20410;-89
2022/09/17 11:45:24;;;;;;;7.10;6.38;;;;;;;13.50;100.00;99024.38;6278975;22;20019;-89